createdAt,value
2023-01-08T00:03:40.033Z,8.30
2023-01-08T00:08:42.794Z,8.30
2023-01-08T00:13:44.550Z,8.30
2023-01-08T00:18:48.263Z,8.30
2023-01-08T00:23:50.982Z,8.20
2023-01-08T00:28:52.693Z,8.20
2023-01-08T00:33:54.443Z,8.20
2023-01-08T00:38:56.253Z,8.20
2023-01-08T00:43:58.241Z,8.20
2023-01-08T00:48:59.897Z,8.30
2023-01-08T00:54:01.658Z,8.40
2023-01-08T00:59:03.415Z,8.60
2023-01-08T01:04:06.826Z,8.50
2023-01-08T01:09:09.124Z,8.60
2023-01-08T01:14:10.834Z,8.60
2023-01-08T01:19:12.608Z,8.70
2023-01-08T01:24:15.665Z,8.80
2023-01-08T01:29:18.600Z,8.80
2023-01-08T01:34:20.370Z,8.80
2023-01-08T01:39:23.141Z,8.80
2023-01-08T01:44:43.996Z,8.60
2023-01-08T01:49:54.509Z,8.40
2023-01-08T01:55:03.604Z,8.30
2023-01-08T02:00:07.791Z,8.20
2023-01-08T02:05:10.073Z,8.10
2023-01-08T02:10:30.731Z,8.00
2023-01-08T02:16:02.322Z,7.90
2023-01-08T02:21:10.274Z,8.00
2023-01-08T02:26:31.135Z,7.80
2023-01-08T02:31:36.165Z,7.70
2023-01-08T02:36:55.248Z,7.60
2023-01-08T02:42:06.798Z,7.70
2023-01-08T02:47:14.271Z,7.80
2023-01-08T02:52:17.419Z,7.80
2023-01-08T02:57:23.294Z,7.70
2023-01-08T03:02:29.277Z,7.90
2023-01-08T03:07:31.403Z,8.00
2023-01-08T03:12:55.468Z,8.10
2023-01-08T03:18:05.393Z,8.20
2023-01-08T03:23:11.054Z,8.30
2023-01-08T03:28:19.106Z,8.30
2023-01-08T03:33:23.832Z,8.40
2023-01-08T03:38:33.964Z,8.50
2023-01-08T03:43:36.161Z,8.50
2023-01-08T03:48:38.693Z,8.60
2023-01-08T03:53:42.967Z,8.50
2023-01-08T03:58:45.275Z,8.30
2023-01-08T04:03:51.481Z,8.40
2023-01-08T04:08:53.239Z,8.40
2023-01-08T04:13:55.712Z,8.50
2023-01-08T04:18:57.428Z,8.70
2023-01-08T04:24:03.891Z,8.60
2023-01-08T04:29:05.773Z,8.70
2023-01-08T04:34:07.484Z,8.60
2023-01-08T04:39:11.483Z,8.60
2023-01-08T04:44:13.504Z,8.70
2023-01-08T04:49:15.284Z,8.60
2023-01-08T04:54:17.219Z,8.60
2023-01-08T04:59:19.430Z,8.50
2023-01-08T05:04:22.502Z,8.50
2023-01-08T05:09:24.236Z,8.50
2023-01-08T05:14:26.342Z,8.60
2023-01-08T05:19:28.051Z,8.70
2023-01-08T05:24:29.898Z,8.60
2023-01-08T05:29:31.573Z,8.70
2023-01-08T05:34:33.335Z,8.70
2023-01-08T05:39:35.084Z,8.80
2023-01-08T05:44:36.791Z,8.90
2023-01-08T05:49:38.592Z,8.90
2023-01-08T05:54:42.624Z,9.00
2023-01-08T05:59:44.362Z,9.00
2023-01-08T06:04:46.397Z,9.10
2023-01-08T06:09:48.235Z,9.10
2023-01-08T06:14:52.056Z,9.00
2023-01-08T06:19:54.195Z,9.00
2023-01-08T06:24:55.953Z,9.00
2023-01-08T06:30:00.090Z,9.00
2023-01-08T06:35:01.876Z,9.00
2023-01-08T06:40:04.125Z,9.00
2023-01-08T06:45:07.381Z,9.00
2023-01-08T06:50:09.998Z,9.00
2023-01-08T06:55:11.851Z,9.00
2023-01-08T07:00:14.588Z,9.10
2023-01-08T07:05:18.118Z,9.20
2023-01-08T07:10:20.316Z,9.20
2023-01-08T07:15:22.426Z,9.20
2023-01-08T07:20:24.140Z,9.20
2023-01-08T07:25:26.032Z,9.20
2023-01-08T07:30:30.314Z,9.30
2023-01-08T07:35:32.432Z,9.30
2023-01-08T07:40:34.249Z,9.40
2023-01-08T07:45:36.448Z,9.30
2023-01-08T07:50:41.472Z,9.30
2023-01-08T07:55:43.451Z,9.30
2023-01-08T08:00:45.201Z,9.40
2023-01-08T08:05:47.021Z,9.30
2023-01-08T08:10:48.990Z,9.30
2023-01-08T08:15:52.219Z,9.30
2023-01-08T08:20:53.959Z,9.30
2023-01-08T08:25:58.020Z,9.40
2023-01-08T08:30:59.880Z,9.50
2023-01-08T08:36:01.670Z,9.60
2023-01-08T08:41:03.515Z,9.60
2023-01-08T08:46:05.361Z,9.70
2023-01-08T08:51:09.240Z,9.70
2023-01-08T08:56:11.642Z,9.60
2023-01-08T09:01:13.468Z,9.60
2023-01-08T09:06:16.137Z,9.60
2023-01-08T09:11:17.871Z,9.60
2023-01-08T09:16:19.685Z,9.50
2023-01-08T09:21:21.995Z,9.50
2023-01-08T09:26:24.010Z,9.60
2023-01-08T09:31:26.677Z,9.60
2023-01-08T09:36:28.463Z,9.50
2023-01-08T09:41:36.245Z,9.60
2023-01-08T09:46:38.199Z,9.80
2023-01-08T09:51:40.648Z,9.90
2023-01-08T09:56:43.574Z,9.90
2023-01-08T10:01:46.215Z,10.00
2023-01-08T10:07:02.282Z,10.00
2023-01-08T10:12:06.782Z,10.10
2023-01-08T10:17:25.619Z,10.20
2023-01-08T10:22:33.863Z,10.20
2023-01-08T10:27:49.680Z,10.30
2023-01-08T10:32:57.149Z,10.30
2023-01-08T10:37:59.250Z,10.40
2023-01-08T10:43:21.121Z,10.50
2023-01-08T10:48:25.595Z,10.40
2023-01-08T10:53:29.993Z,10.40
2023-01-08T10:58:42.487Z,10.40
2023-01-08T11:03:49.826Z,10.40
2023-01-08T11:09:13.965Z,10.30
2023-01-08T11:14:26.555Z,10.30
2023-01-08T11:19:33.545Z,10.40
2023-01-08T11:24:39.994Z,10.40
2023-01-08T11:29:50.348Z,10.40
2023-01-08T11:35:20.204Z,10.50
2023-01-08T11:40:57.924Z,10.60
2023-01-08T11:46:02.950Z,10.60
2023-01-08T11:51:19.765Z,10.60
2023-01-08T11:56:54.750Z,10.60
2023-01-08T12:02:06.174Z,10.60
2023-01-08T12:07:30.727Z,10.60
2023-01-08T12:13:05.367Z,10.70
2023-01-08T12:18:34.864Z,10.70
2023-01-08T12:24:21.192Z,10.70
2023-01-08T12:29:29.061Z,10.70
2023-01-08T12:34:41.865Z,10.70
2023-01-08T12:39:51.606Z,10.70
2023-01-08T12:44:54.932Z,10.70
2023-01-08T12:50:14.886Z,10.80
2023-01-08T12:55:18.198Z,10.80
2023-01-08T13:00:31.243Z,10.80
2023-01-08T13:05:36.431Z,10.70
2023-01-08T13:10:51.275Z,10.70
2023-01-08T13:15:54.599Z,10.60
2023-01-08T13:21:02.159Z,10.60
2023-01-08T13:26:06.440Z,10.50
2023-01-08T13:31:11.306Z,10.60
2023-01-08T13:36:13.991Z,10.60
2023-01-08T13:41:32.186Z,10.60
2023-01-08T13:46:37.790Z,10.60
2023-01-08T13:51:49.972Z,10.60
2023-01-08T13:57:03.038Z,10.60
2023-01-08T14:02:21.743Z,10.60
2023-01-08T14:07:24.469Z,10.50
2023-01-08T14:12:26.202Z,10.50
2023-01-08T14:17:32.201Z,10.50
2023-01-08T14:22:36.152Z,10.40
2023-01-08T14:27:39.390Z,10.40
2023-01-08T14:32:45.075Z,10.50
2023-01-08T14:37:47.235Z,10.50
2023-01-08T14:42:53.530Z,10.60
2023-01-08T14:48:01.071Z,10.70
2023-01-08T14:53:11.212Z,10.70
2023-01-08T14:58:17.321Z,10.60
2023-01-08T15:03:43.545Z,10.60
2023-01-08T15:08:45.366Z,10.60
2023-01-08T15:13:49.623Z,10.50
2023-01-08T15:19:00.477Z,10.40
2023-01-08T15:24:03.749Z,10.30
2023-01-08T15:29:06.535Z,10.30
2023-01-08T15:34:08.762Z,10.20
2023-01-08T15:39:10.665Z,9.90
2023-01-08T15:44:12.941Z,9.70
2023-01-08T15:49:14.729Z,9.60
2023-01-08T15:54:19.169Z,9.50
2023-01-08T15:59:20.866Z,9.40
2023-01-08T16:04:22.790Z,9.30
2023-01-08T16:09:24.699Z,9.10
2023-01-08T16:14:26.489Z,9.00
2023-01-08T16:19:30.049Z,8.90
2023-01-08T16:24:34.684Z,8.70
2023-01-08T16:29:36.405Z,8.70
2023-01-08T16:34:38.168Z,8.70
2023-01-08T16:39:39.922Z,8.70
2023-01-08T16:44:42.543Z,8.70
2023-01-08T16:49:45.027Z,8.80
2023-01-08T16:54:48.958Z,8.70
2023-01-08T16:59:50.828Z,8.70
2023-01-08T17:04:52.576Z,8.80
2023-01-08T17:09:54.298Z,8.80
2023-01-08T17:14:56.255Z,8.70
2023-01-08T17:19:58.388Z,8.70
2023-01-08T17:25:00.129Z,8.70
2023-01-08T17:30:02.165Z,8.70
2023-01-08T17:35:05.118Z,8.90
2023-01-08T17:40:07.373Z,8.90
2023-01-08T17:45:09.731Z,8.90
2023-01-08T17:50:11.927Z,8.90
2023-01-08T17:55:13.841Z,8.90
2023-01-08T18:00:16.484Z,8.90
2023-01-08T18:05:18.304Z,8.90
2023-01-08T18:10:20.268Z,8.90
2023-01-08T18:15:25.028Z,8.90
2023-01-08T18:20:27.564Z,8.90
2023-01-08T18:25:29.335Z,8.90
2023-01-08T18:30:33.233Z,8.90
2023-01-08T18:35:34.976Z,8.90
2023-01-08T18:40:36.758Z,9.00
2023-01-08T18:45:40.293Z,8.90
2023-01-08T18:50:42.173Z,8.80
2023-01-08T18:55:44.031Z,8.80
2023-01-08T19:00:45.811Z,8.80
2023-01-08T19:05:47.578Z,8.80
2023-01-08T19:10:50.639Z,8.70
2023-01-08T19:15:52.474Z,8.60
2023-01-08T19:20:54.396Z,8.60
2023-01-08T19:25:56.073Z,8.50
2023-01-08T19:30:58.978Z,8.50
2023-01-08T19:36:12.326Z,8.50
2023-01-08T19:41:32.824Z,8.40
2023-01-08T19:46:36.258Z,8.40
2023-01-08T19:51:38.009Z,8.30
2023-01-08T19:56:39.844Z,8.10
2023-01-08T20:01:43.000Z,8.10
2023-01-08T20:06:44.916Z,8.00
2023-01-08T20:11:46.651Z,7.90
2023-01-08T20:16:48.375Z,7.90
2023-01-08T20:21:50.120Z,7.90
2023-01-08T20:26:51.850Z,7.80
2023-01-08T20:31:56.925Z,7.80
2023-01-08T20:36:59.808Z,7.70
2023-01-08T20:42:04.539Z,7.70
2023-01-08T20:47:06.857Z,7.70
2023-01-08T20:52:08.675Z,7.70
2023-01-08T20:57:10.639Z,7.70
2023-01-08T21:02:13.228Z,7.60
2023-01-08T21:07:15.442Z,7.60
2023-01-08T21:12:17.303Z,7.50
2023-01-08T21:17:19.843Z,7.40
2023-01-08T21:22:21.794Z,7.50
2023-01-08T21:27:23.665Z,7.40
2023-01-08T21:32:25.532Z,7.50
2023-01-08T21:37:27.966Z,7.50
2023-01-08T21:42:48.167Z,7.40
2023-01-08T21:47:50.138Z,7.30
2023-01-08T21:53:10.387Z,7.10
2023-01-08T21:58:12.446Z,7.20
2023-01-08T22:03:14.317Z,7.00
2023-01-08T22:08:18.509Z,6.90
2023-01-08T22:13:20.467Z,6.90
2023-01-08T22:18:22.340Z,6.80
2023-01-08T22:23:24.390Z,6.80
2023-01-08T22:28:26.668Z,6.80
2023-01-08T22:33:28.551Z,6.80
2023-01-08T22:38:30.450Z,6.80
2023-01-08T22:43:32.388Z,6.80
2023-01-08T22:48:35.407Z,6.80
2023-01-08T22:53:37.332Z,6.90
2023-01-08T22:58:41.756Z,6.90
2023-01-08T23:03:44.657Z,6.90
2023-01-08T23:08:47.227Z,7.10
2023-01-08T23:13:51.252Z,6.90
2023-01-08T23:18:54.499Z,7.10
2023-01-08T23:23:56.913Z,7.00
2023-01-08T23:28:59.186Z,7.00
2023-01-08T23:34:00.892Z,7.00
2023-01-08T23:39:02.634Z,6.90
2023-01-08T23:44:11.061Z,6.90
2023-01-08T23:49:12.886Z,6.90
2023-01-08T23:54:15.284Z,7.00
2023-01-08T23:59:17.085Z,6.90
